Terminal Aerodrome Forecast
Issued by NWS

Home | Current Version | Previous Version | Text Only | Print | Product List | Glossary On
Versions: 1 2 3 4 5 6 7 8 9 10 11 12
241
FTUS46 KHNX 051741
TAFBFL
TAF
KBFL 051741Z 0518/0618 31007KT P6SM OVC040
     FM052200 31010KT P6SM -SHRA SCT030 BKN050
      TEMPO 0600/0604 4SM -TSRA BKN025CB=

USA.gov is the U.S. government's official web portal to all federal, state and local government web resources and services.